createdAt,value
2023-02-02T00:01:36.243Z,3.14
2023-02-02T00:04:05.041Z,3.04
2023-02-02T00:21:53.221Z,3.96
2023-02-02T00:24:22.693Z,3.96
2023-02-02T00:26:53.902Z,3.41
2023-02-02T00:29:28.413Z,3.53
2023-02-02T00:31:56.611Z,3.63
2023-02-02T00:34:25.433Z,3.65
2023-02-02T00:36:53.597Z,3.72
2023-02-02T00:57:15.011Z,4.29
2023-02-02T00:59:43.741Z,4.29
2023-02-02T01:02:12.181Z,3.43
2023-02-02T01:04:40.692Z,3.67
2023-02-02T01:07:09.316Z,3.59
2023-02-02T01:09:37.156Z,3.65
2023-02-02T01:12:05.310Z,3.61
2023-02-02T01:35:03.325Z,4.36
2023-02-02T01:37:31.875Z,4.36
2023-02-02T01:39:59.735Z,3.79
2023-02-02T01:42:27.743Z,3.77
2023-02-02T01:45:05.156Z,3.81
2023-02-02T01:47:43.194Z,3.85
2023-02-02T01:50:13.634Z,3.82
2023-02-02T02:11:34.857Z,3.78
2023-02-02T02:14:25.534Z,3.89
2023-02-02T02:17:12.796Z,4.19
2023-02-02T02:20:18.317Z,4.38
2023-02-02T02:23:39.975Z,4.56
2023-02-02T02:26:35.820Z,4.56
2023-02-02T02:48:29.878Z,3.91
2023-02-02T02:51:35.992Z,3.91
2023-02-02T02:54:04.632Z,3.16
2023-02-02T02:56:44.946Z,3.16
2023-02-02T02:59:25.084Z,3.29
2023-02-02T03:02:11.800Z,3.26
2023-02-02T03:28:30.331Z,3.93
2023-02-02T03:31:01.554Z,3.93
2023-02-02T03:33:32.583Z,3.38
2023-02-02T03:36:00.844Z,3.29
2023-02-02T03:38:28.820Z,3.24
2023-02-02T03:40:56.734Z,3.23
2023-02-02T03:43:25.170Z,3.12
2023-02-02T04:03:43.939Z,3.47
2023-02-02T04:06:12.524Z,3.47
2023-02-02T04:08:40.491Z,2.80
2023-02-02T04:11:12.217Z,2.78
2023-02-02T04:13:40.913Z,2.76
2023-02-02T04:16:09.101Z,2.75
2023-02-02T04:18:40.162Z,2.71
2023-02-02T04:21:18.543Z,2.62
2023-02-02T04:41:14.757Z,3.07
2023-02-02T04:43:43.432Z,3.07
2023-02-02T04:46:11.950Z,2.33
2023-02-02T04:48:43.824Z,2.32
2023-02-02T04:51:14.655Z,2.22
2023-02-02T04:53:42.895Z,2.25
2023-02-02T04:56:16.727Z,2.23
2023-02-02T04:58:45.912Z,2.07
2023-02-02T05:14:06.530Z,2.73
2023-02-02T05:16:35.023Z,2.73
2023-02-02T05:19:03.332Z,1.99
2023-02-02T05:21:31.316Z,2.06
2023-02-02T05:24:01.272Z,2.09
2023-02-02T05:26:29.264Z,1.90
2023-02-02T05:28:57.548Z,1.90
2023-02-02T05:31:26.339Z,1.97
2023-02-02T05:51:51.761Z,2.59
2023-02-02T05:54:20.754Z,2.59
2023-02-02T05:56:49.927Z,2.02
2023-02-02T05:59:19.071Z,1.92
2023-02-02T06:01:47.901Z,1.92
2023-02-02T06:04:16.197Z,1.88
2023-02-02T06:06:44.336Z,1.74
2023-02-02T06:09:12.462Z,1.75
2023-02-02T06:11:40.936Z,1.71
2023-02-02T06:14:09.193Z,1.63
2023-02-02T06:16:37.460Z,1.74
2023-02-02T06:26:30.019Z,1.83
2023-02-02T06:38:53.573Z,1.80
2023-02-02T07:01:44.074Z,2.28
2023-02-02T07:04:17.577Z,2.31
2023-02-02T07:06:45.911Z,2.29
2023-02-02T07:09:17.562Z,2.31
2023-02-02T07:11:45.679Z,2.39
2023-02-02T07:14:14.009Z,2.43
2023-02-02T07:16:42.399Z,2.42
2023-02-02T07:19:10.760Z,2.36
2023-02-02T07:21:38.902Z,2.24
2023-02-02T07:24:08.124Z,2.49
2023-02-02T07:26:36.481Z,2.50
2023-02-02T07:29:05.161Z,2.60
2023-02-02T07:31:41.479Z,2.39
2023-02-02T07:34:09.853Z,2.23
2023-02-02T07:36:38.759Z,2.39
2023-02-02T07:39:10.242Z,2.38
2023-02-02T07:41:39.161Z,2.44
2023-02-02T07:44:16.171Z,2.61
2023-02-02T07:46:46.055Z,2.88
2023-02-02T08:02:03.386Z,3.87
2023-02-02T08:26:40.881Z,5.62
2023-02-02T08:29:21.443Z,5.62
2023-02-02T08:31:51.989Z,5.24
2023-02-02T08:34:20.298Z,5.50
2023-02-02T08:36:48.314Z,5.91
2023-02-02T08:39:16.344Z,5.99
2023-02-02T08:41:48.163Z,6.20
2023-02-02T08:44:16.393Z,6.53
2023-02-02T08:46:44.816Z,6.62
2023-02-02T08:49:15.899Z,6.37
2023-02-02T08:51:44.749Z,6.56
2023-02-02T08:54:14.829Z,6.68
2023-02-02T08:56:46.410Z,6.45
2023-02-02T08:59:15.077Z,6.38
2023-02-02T09:01:43.319Z,6.49
2023-02-02T09:04:18.586Z,6.96
2023-02-02T09:09:49.275Z,6.62
2023-02-02T09:12:20.814Z,6.71
2023-02-02T09:39:21.221Z,8.37
2023-02-02T09:42:15.953Z,8.37
2023-02-02T09:44:59.761Z,7.92
2023-02-02T09:47:55.752Z,7.68
2023-02-02T09:50:38.908Z,7.34
2023-02-02T09:53:20.180Z,7.09
2023-02-02T09:55:54.075Z,7.00
2023-02-02T09:58:28.005Z,6.74
2023-02-02T10:01:22.954Z,6.68
2023-02-02T10:21:18.029Z,7.97
2023-02-02T10:24:03.607Z,7.76
2023-02-02T10:26:46.498Z,7.97
2023-02-02T10:29:25.036Z,7.89
2023-02-02T10:32:06.555Z,7.94
2023-02-02T10:35:06.812Z,7.69
2023-02-02T10:37:43.672Z,7.59
2023-02-02T10:40:42.782Z,7.50
2023-02-02T11:39:19.228Z,8.40
2023-02-02T11:41:48.214Z,8.28
2023-02-02T11:44:25.295Z,7.87
2023-02-02T11:46:54.464Z,7.72
2023-02-02T11:49:24.360Z,7.55
2023-02-02T11:52:01.725Z,7.53
2023-02-02T11:54:33.449Z,7.38
2023-02-02T11:57:05.050Z,7.19
2023-02-02T11:59:45.097Z,7.29
2023-02-02T12:02:13.294Z,7.20
2023-02-02T12:04:41.846Z,7.28
2023-02-02T12:07:25.158Z,7.25
2023-02-02T12:09:57.262Z,7.33
2023-02-02T12:12:43.144Z,7.29
2023-02-02T12:15:51.718Z,7.14
2023-02-02T12:21:38.683Z,7.23
2023-02-02T12:58:10.015Z,7.48
2023-02-02T13:01:04.637Z,7.48
2023-02-02T13:03:44.412Z,6.99
2023-02-02T13:06:44.508Z,7.11
2023-02-02T13:12:08.993Z,6.82
2023-02-02T13:14:45.861Z,6.62
2023-02-02T13:17:29.404Z,6.58
2023-02-02T13:20:11.641Z,6.53
2023-02-02T13:22:43.149Z,6.52
2023-02-02T13:25:27.426Z,6.46
2023-02-02T13:27:56.825Z,6.51
2023-02-02T13:30:35.308Z,6.33
2023-02-02T13:33:12.291Z,6.36
2023-02-02T13:35:53.543Z,6.38
2023-02-02T13:38:30.626Z,6.20
2023-02-02T13:41:04.037Z,6.14
2023-02-02T14:08:53.050Z,6.58
2023-02-02T14:11:31.866Z,6.58
2023-02-02T14:14:28.745Z,6.00
2023-02-02T14:16:57.047Z,5.86
2023-02-02T14:19:27.955Z,5.79
2023-02-02T14:22:09.467Z,5.80
2023-02-02T14:24:37.304Z,5.73
2023-02-02T14:27:08.824Z,5.63
2023-02-02T14:29:46.949Z,5.65
2023-02-02T14:32:24.992Z,5.64
2023-02-02T14:40:34.859Z,5.45
2023-02-02T14:43:39.940Z,5.39
2023-02-02T14:46:07.955Z,5.38
2023-02-02T14:51:25.375Z,5.25
2023-02-02T15:09:36.876Z,5.33
2023-02-02T15:12:11.091Z,5.33
2023-02-02T15:14:45.791Z,4.74
2023-02-02T15:17:40.227Z,4.77
2023-02-02T15:20:26.615Z,4.78
2023-02-02T15:23:07.176Z,4.79
2023-02-02T15:32:28.635Z,4.76
2023-02-02T15:35:05.865Z,4.77
2023-02-02T15:48:30.908Z,5.04
2023-02-02T15:51:15.707Z,5.04
2023-02-02T15:53:43.520Z,4.53
2023-02-02T15:56:19.534Z,4.46
2023-02-02T15:58:49.335Z,4.37
2023-02-02T16:01:21.361Z,4.52
2023-02-02T16:04:01.851Z,4.36
2023-02-02T16:06:31.574Z,4.47
2023-02-02T16:09:04.222Z,4.52
2023-02-02T16:27:25.295Z,5.05
2023-02-02T16:29:56.300Z,5.05
2023-02-02T16:32:39.299Z,4.57
2023-02-02T16:35:37.478Z,4.52
2023-02-02T16:38:30.703Z,4.54
2023-02-02T16:41:35.222Z,4.49
2023-02-02T16:44:29.114Z,4.39
2023-02-02T16:46:58.710Z,4.40
2023-02-02T16:49:27.502Z,4.40
2023-02-02T16:52:15.844Z,4.32
2023-02-02T17:07:37.416Z,4.22
2023-02-02T17:10:14.904Z,4.15
2023-02-02T17:12:43.550Z,4.06
2023-02-02T17:15:17.572Z,4.08
2023-02-02T17:17:49.180Z,4.10
2023-02-02T17:20:18.529Z,4.17
2023-02-02T17:22:54.514Z,3.88
2023-02-02T17:25:33.158Z,3.89
2023-02-02T17:28:02.645Z,4.02
2023-02-02T17:50:48.084Z,4.30
2023-02-02T17:53:20.491Z,4.30
2023-02-02T17:55:50.361Z,3.75
2023-02-02T17:58:19.690Z,3.69
2023-02-02T18:00:56.545Z,3.60
2023-02-02T18:03:35.130Z,3.62
2023-02-02T18:06:03.518Z,3.25
2023-02-02T18:08:33.007Z,3.26
2023-02-02T18:11:01.400Z,3.22
2023-02-02T18:28:54.824Z,3.50
2023-02-02T18:31:24.237Z,3.50
2023-02-02T18:33:53.956Z,2.85
2023-02-02T18:36:23.848Z,2.76
2023-02-02T18:38:54.105Z,2.82
2023-02-02T18:41:23.089Z,2.88
2023-02-02T18:43:55.160Z,2.82
2023-02-02T18:46:26.728Z,2.77
2023-02-02T19:07:12.792Z,2.92
2023-02-02T19:09:41.403Z,2.89
2023-02-02T19:12:14.434Z,2.78
2023-02-02T19:14:44.357Z,2.79
2023-02-02T19:17:21.669Z,2.75
2023-02-02T19:19:50.829Z,2.67
2023-02-02T19:44:11.089Z,2.61
2023-02-02T19:46:43.995Z,2.61
2023-02-02T19:49:36.505Z,1.89
2023-02-02T19:52:18.399Z,1.83
2023-02-02T19:54:49.076Z,2.02
2023-02-02T19:57:25.494Z,2.01
2023-02-02T19:59:54.929Z,2.12
2023-02-02T20:24:37.528Z,2.83
2023-02-02T20:27:13.400Z,2.83
2023-02-02T20:29:43.498Z,2.23
2023-02-02T20:32:40.193Z,2.29
2023-02-02T20:35:23.280Z,2.34
2023-02-02T20:37:52.540Z,2.27
2023-02-02T20:57:49.869Z,2.89
2023-02-02T21:00:21.508Z,2.89
2023-02-02T21:02:49.717Z,2.23
2023-02-02T21:05:18.008Z,2.10
2023-02-02T21:07:46.253Z,2.16
2023-02-02T21:10:14.317Z,2.16
2023-02-02T21:12:42.521Z,2.07
2023-02-02T21:15:16.909Z,2.03
2023-02-02T21:35:38.045Z,2.41
2023-02-02T21:38:15.574Z,2.41
2023-02-02T21:40:43.475Z,1.90
2023-02-02T21:43:17.334Z,1.72
2023-02-02T21:45:50.660Z,1.64
2023-02-02T21:48:29.750Z,1.56
2023-02-02T21:51:24.948Z,1.69
2023-02-02T21:53:53.474Z,1.55
2023-02-02T22:15:01.801Z,2.19
2023-02-02T22:17:40.276Z,2.19
2023-02-02T22:20:17.539Z,1.68
2023-02-02T22:22:47.814Z,1.73
2023-02-02T22:25:18.757Z,1.79
2023-02-02T22:27:50.650Z,1.86
2023-02-02T22:50:52.746Z,2.30
2023-02-02T22:53:21.385Z,2.30
2023-02-02T22:55:56.463Z,1.60
2023-02-02T22:58:25.745Z,1.64
2023-02-02T23:00:54.082Z,1.65
2023-02-02T23:03:21.948Z,1.66
2023-02-02T23:05:50.213Z,1.64
2023-02-02T23:08:18.475Z,1.63
2023-02-02T23:28:15.664Z,2.10
2023-02-02T23:30:44.401Z,2.10
2023-02-02T23:33:12.240Z,1.51
2023-02-02T23:35:40.083Z,1.66
2023-02-02T23:38:08.266Z,1.65
2023-02-02T23:40:36.340Z,1.66
2023-02-02T23:43:04.333Z,1.80
